Curtis Field
KBBD : now visible

Airfield :











YOU CAN JOIN US ON...

 
LOGIN :

Register | Disclaimer

   EN    FR    IT 

 









Legend :    VFR   Marginal VFR   IFR   Intensive IFR   Very Intensive IFR
Visi :
Ceiling :
>= 8 km
>= 3000ft
5 to 8 km
1000 to 3000 ft
1500m to 5 km
500 to 1000 ft
800 to 1500m
200 to 500 ft
< 800m
< 200 ft
Symbols :   Thunderstorms  Fog  Heavy snow  Heavy precipitations  Wind > 20 kt






- Airport Elevation : 1827 ft


KBBD - Curtis Field

CURRENT METAR :
  • 241255Z AUTO 24004KT 10SM CLR 08/02 A3019 RMK AO2

EXPIRED METARs :
  • 241235Z AUTO 00000KT 10SM CLR 09/01 A3018 RMK AO2
  • 241215Z AUTO 00000KT 10SM CLR 08/01 A3018 RMK AO2
  • 241155Z AUTO 23003KT 10SM CLR 08/01 A3018 RMK AO2
  • 241135Z AUTO 00000KT 10SM CLR 09/01 A3017 RMK AO2
  • 241115Z AUTO 21003KT 10SM CLR 09/02 A3017 RMK AO2
  • 241055Z AUTO 00000KT 10SM CLR 09/02 A3016 RMK AO2
  • 241035Z AUTO 22003KT 10SM CLR 08/03 A3017 RMK AO2
  • 241015Z AUTO 25003KT 10SM CLR 08/03 A3017 RMK AO2
  • 240955Z AUTO 24003KT 10SM CLR 09/03 A3017 RMK AO2
  • 240935Z AUTO 00000KT 10SM CLR 10/02 A3017 RMK AO2
  • 240915Z AUTO 00000KT 10SM CLR 10/01 A3017 RMK AO2
  • 240855Z AUTO 00000KT 10SM CLR 10/01 A3017 RMK AO2
  • 240835Z AUTO 20003KT 10SM CLR 10/01 A3017 RMK AO2
  • 240815Z AUTO 19005KT 10SM CLR 11/01 A3017 RMK AO2

TAF KBBD
Valid from the 24 at 12:00 until the 25 at 12:00 UTC


241120Z 2412/2512 VRB05KT P6SM SKC
FM241800 19009G18KT P6SM SKC
FM250600 18013G21KT P6SM SKC
KZHU FIR / North America



MET'MAP, your aeronautical weather chart ! - Copyright ORBIFLY December 2007 - Disclaimer

ORBIFLY MET'MAP TEAM :

Programming & Development : Alexandra Zaïnal
Original concept : Baudouin d'Aumeries
Technical & hardware support : Manuel Goepfert
Assistance : Marc-Olivier Méhu




SOURCES & CREDITS :

   NOAA       Earth
Advisory